Terminal Aerodrome Forecast
Issued by NWS

Home | Current Version | Previous Version | Graphics & Text | Print | Product List | Glossary On
Versions: 1 2 3 4 5 6 7 8 9 10 11 12 13 14
000
FTUS43 KBIS 291100
TAFMOT
TAF
KMOT 291135Z 2912/3012 20003KT P6SM SCT045 BKN060
     FM291800 35006KT P6SM SCT050
     FM300300 03004KT P6SM BKN050
     FM300900 VRB03KT P6SM SKC=

USA.gov is the U.S. government's official web portal to all federal, state and local government web resources and services.